createdAt,value
2023-05-11T00:00:21.749Z,14.10
2023-05-11T00:02:49.059Z,14.10
2023-05-11T00:05:16.492Z,14.10
2023-05-11T00:07:43.961Z,14.00
2023-05-11T00:10:11.245Z,14.00
2023-05-11T00:12:38.232Z,14.00
2023-05-11T00:15:05.692Z,13.90
2023-05-11T00:17:32.838Z,13.90
2023-05-11T00:19:59.800Z,13.80
2023-05-11T00:22:26.972Z,13.80
2023-05-11T00:24:54.067Z,13.80
2023-05-11T00:27:21.218Z,13.80
2023-05-11T00:29:48.199Z,13.70
2023-05-11T00:32:15.516Z,13.60
2023-05-11T00:34:43.171Z,13.40
2023-05-11T00:37:10.382Z,13.30
2023-05-11T00:39:40.526Z,13.20
2023-05-11T00:42:07.985Z,13.10
2023-05-11T00:44:34.984Z,13.00
2023-05-11T00:47:02.056Z,12.90
2023-05-11T00:49:29.970Z,12.90
2023-05-11T00:51:58.012Z,12.70
2023-05-11T00:54:25.459Z,12.60
2023-05-11T00:56:52.781Z,12.50
2023-05-11T00:59:19.774Z,12.50
2023-05-11T01:01:47.139Z,12.50
2023-05-11T01:04:14.300Z,12.40
2023-05-11T01:06:59.598Z,12.40
2023-05-11T01:09:29.969Z,12.30
2023-05-11T01:12:17.414Z,12.30
2023-05-11T01:14:56.587Z,12.20
2023-05-11T01:17:50.142Z,12.20
2023-05-11T01:20:21.573Z,12.10
2023-05-11T01:22:51.806Z,12.00
2023-05-11T01:25:22.511Z,11.90
2023-05-11T01:27:51.840Z,11.90
2023-05-11T01:30:27.288Z,11.90
2023-05-11T01:32:56.412Z,11.90
2023-05-11T01:35:24.794Z,11.90
2023-05-11T01:37:54.120Z,12.00
2023-05-11T01:40:26.021Z,12.00
2023-05-11T01:43:04.875Z,11.90
2023-05-11T01:45:40.766Z,11.80
2023-05-11T01:48:11.276Z,11.70
2023-05-11T01:50:39.356Z,11.70
2023-05-11T01:53:06.982Z,11.70
2023-05-11T01:55:35.990Z,11.60
2023-05-11T01:58:04.133Z,11.70
2023-05-11T02:03:01.614Z,11.60
2023-05-11T02:05:30.007Z,11.50
2023-05-11T02:07:58.449Z,11.50
2023-05-11T02:10:26.550Z,11.50
2023-05-11T02:12:54.598Z,11.60
2023-05-11T02:15:24.131Z,11.60
2023-05-11T02:17:53.609Z,11.60
2023-05-11T02:20:21.306Z,11.60
2023-05-11T02:22:49.380Z,11.60
2023-05-11T02:25:17.079Z,11.60
2023-05-11T02:27:44.965Z,11.60
2023-05-11T02:30:13.051Z,11.50
2023-05-11T02:32:44.325Z,11.50
2023-05-11T02:35:13.152Z,11.50
2023-05-11T02:37:43.941Z,11.50
2023-05-11T02:40:17.265Z,11.50
2023-05-11T02:42:47.154Z,11.40
2023-05-11T02:45:15.260Z,11.40
2023-05-11T02:47:53.325Z,11.30
2023-05-11T02:50:24.553Z,11.30
2023-05-11T02:52:54.883Z,11.30
2023-05-11T02:55:22.688Z,11.30
2023-05-11T02:57:50.316Z,11.30
2023-05-11T03:00:18.082Z,11.30
2023-05-11T03:02:46.751Z,11.40
2023-05-11T03:05:15.706Z,11.40
2023-05-11T03:07:43.208Z,11.40
2023-05-11T03:10:10.384Z,11.50
2023-05-11T03:12:40.595Z,11.50
2023-05-11T03:15:08.643Z,11.50
2023-05-11T03:17:37.324Z,11.50
2023-05-11T03:20:06.513Z,11.50
2023-05-11T03:22:35.139Z,11.50
2023-05-11T03:25:03.449Z,11.50
2023-05-11T03:27:31.997Z,11.50
2023-05-11T03:30:00.219Z,11.60
2023-05-11T03:32:27.535Z,11.60
2023-05-11T03:34:55.245Z,11.60
2023-05-11T03:37:22.590Z,11.50
2023-05-11T03:39:52.622Z,11.50
2023-05-11T03:42:20.985Z,11.50
2023-05-11T03:44:49.782Z,11.50
2023-05-11T03:47:17.569Z,11.60
2023-05-11T03:49:47.888Z,11.60
2023-05-11T03:52:15.156Z,11.70
2023-05-11T03:54:43.240Z,11.70
2023-05-11T03:57:12.158Z,11.70
2023-05-11T03:59:39.788Z,11.70
2023-05-11T04:02:07.807Z,11.70
2023-05-11T04:04:35.236Z,11.60
2023-05-11T04:07:02.313Z,11.80
2023-05-11T04:09:29.588Z,11.90
2023-05-11T04:11:56.775Z,12.00
2023-05-11T04:14:24.274Z,12.00
2023-05-11T04:16:51.276Z,12.10
2023-05-11T04:19:19.104Z,12.10
2023-05-11T04:21:47.043Z,12.20
2023-05-11T04:24:14.260Z,12.30
2023-05-11T04:26:41.322Z,12.40
2023-05-11T04:29:10.412Z,12.50
2023-05-11T04:31:37.523Z,12.60
2023-05-11T04:34:08.582Z,12.60
2023-05-11T04:36:38.516Z,12.50
2023-05-11T04:39:07.443Z,12.50
2023-05-11T04:41:36.713Z,12.60
2023-05-11T04:44:04.087Z,12.60
2023-05-11T04:46:31.536Z,12.60
2023-05-11T04:48:59.663Z,12.80
2023-05-11T04:51:27.769Z,12.80
2023-05-11T04:53:55.469Z,13.00
2023-05-11T04:56:22.960Z,13.00
2023-05-11T04:58:51.032Z,13.20
2023-05-11T05:01:18.224Z,13.30
2023-05-11T05:03:50.030Z,13.40
2023-05-11T05:06:17.754Z,13.40
2023-05-11T05:08:44.833Z,13.40
2023-05-11T05:11:12.078Z,13.50
2023-05-11T05:13:39.674Z,13.50
2023-05-11T05:16:07.162Z,13.50
2023-05-11T05:18:34.334Z,13.70
2023-05-11T05:21:01.533Z,13.70
2023-05-11T05:23:29.099Z,13.70
2023-05-11T05:25:56.140Z,13.80
2023-05-11T05:28:23.496Z,13.80
2023-05-11T05:30:50.539Z,13.80
2023-05-11T05:33:19.372Z,13.90
2023-05-11T05:35:47.043Z,13.90
2023-05-11T05:40:44.414Z,14.10
2023-05-11T05:43:41.054Z,14.20
2023-05-11T05:46:08.212Z,14.30
2023-05-11T05:48:35.739Z,14.40
2023-05-11T05:51:02.990Z,14.60
2023-05-11T05:53:30.974Z,14.70
2023-05-11T05:55:57.979Z,14.80
2023-05-11T05:58:25.446Z,14.80
2023-05-11T06:00:52.759Z,14.90
2023-05-11T06:03:19.943Z,15.00
2023-05-11T06:05:47.178Z,15.10
2023-05-11T06:08:14.720Z,15.20
2023-05-11T06:10:41.696Z,15.30
2023-05-11T06:13:12.154Z,15.40
2023-05-11T06:15:43.362Z,15.50
2023-05-11T06:18:27.687Z,15.80
2023-05-11T06:20:55.290Z,15.90
2023-05-11T06:23:25.700Z,16.10
2023-05-11T06:25:52.936Z,16.20
2023-05-11T06:28:24.520Z,16.40
2023-05-11T06:31:03.837Z,16.60
2023-05-11T06:33:34.810Z,16.60
2023-05-11T06:36:06.446Z,16.70
2023-05-11T06:38:34.930Z,16.80
2023-05-11T06:41:02.315Z,16.80
2023-05-11T06:43:29.697Z,16.90
2023-05-11T06:46:01.164Z,17.10
2023-05-11T06:48:30.088Z,17.20
2023-05-11T06:50:58.957Z,17.20
2023-05-11T06:53:26.332Z,17.40
2023-05-11T06:55:54.603Z,17.60
2023-05-11T06:58:21.814Z,17.90
2023-05-11T07:00:48.774Z,18.10
2023-05-11T07:03:16.045Z,18.50
2023-05-11T07:05:43.159Z,19.00
2023-05-11T07:08:10.310Z,19.30
2023-05-11T07:10:37.353Z,19.40
2023-05-11T07:13:05.458Z,19.60
2023-05-11T07:15:32.560Z,19.80
2023-05-11T07:18:01.417Z,20.10
2023-05-11T07:20:28.466Z,20.30
2023-05-11T07:23:01.422Z,20.30
2023-05-11T07:25:28.910Z,20.60
2023-05-11T07:27:55.994Z,21.00
2023-05-11T07:30:24.304Z,21.20
2023-05-11T07:32:51.603Z,21.60
2023-05-11T07:35:18.772Z,22.10
2023-05-11T07:37:45.773Z,22.10
2023-05-11T07:40:13.089Z,22.60
2023-05-11T07:42:40.066Z,23.40
2023-05-11T07:45:07.628Z,24.40
2023-05-11T07:47:36.754Z,24.60
2023-05-11T07:50:04.320Z,25.60
2023-05-11T07:52:31.381Z,26.70
2023-05-11T07:55:01.105Z,27.20
2023-05-11T07:57:28.969Z,28.70
2023-05-11T07:59:56.163Z,29.20
2023-05-11T08:02:23.099Z,29.50
2023-05-11T08:04:51.306Z,30.00
2023-05-11T08:07:18.206Z,30.40
2023-05-11T08:09:45.620Z,30.70
2023-05-11T08:12:12.708Z,30.10
2023-05-11T08:14:40.009Z,30.00
2023-05-11T08:17:06.998Z,29.40
2023-05-11T08:19:34.304Z,29.10
2023-05-11T08:22:01.622Z,29.00
2023-05-11T08:24:29.161Z,29.80
2023-05-11T08:26:56.818Z,30.30
2023-05-11T08:29:27.380Z,30.20
2023-05-11T08:31:54.661Z,30.90
2023-05-11T08:34:23.311Z,31.80
2023-05-11T08:36:50.535Z,31.10
2023-05-11T08:39:28.517Z,29.90
2023-05-11T08:42:07.092Z,28.40
2023-05-11T08:47:20.929Z,27.00
2023-05-11T08:49:49.306Z,26.50
2023-05-11T08:52:16.485Z,25.80
2023-05-11T08:54:43.550Z,25.70
2023-05-11T08:57:11.202Z,25.90
2023-05-11T08:59:38.963Z,26.80
2023-05-11T09:02:06.426Z,27.70
2023-05-11T09:04:34.244Z,28.00
2023-05-11T09:07:01.296Z,28.30
2023-05-11T09:09:28.709Z,27.90
2023-05-11T09:11:56.213Z,27.70
2023-05-11T09:16:53.602Z,28.50
2023-05-11T09:19:21.087Z,28.80
2023-05-11T09:21:48.106Z,29.10
2023-05-11T09:24:15.482Z,28.70
2023-05-11T09:26:42.525Z,27.90
2023-05-11T09:29:11.783Z,27.90
2023-05-11T09:31:39.288Z,28.30
2023-05-11T09:34:21.374Z,28.10
2023-05-11T09:36:50.058Z,27.70
2023-05-11T10:19:08.311Z,31.30
2023-05-11T10:21:35.645Z,30.20
2023-05-11T10:24:03.886Z,29.60
2023-05-11T10:26:31.263Z,29.80
2023-05-11T10:29:01.564Z,29.30
2023-05-11T10:31:29.301Z,28.90
2023-05-11T11:15:56.744Z,28.90
2023-05-11T11:18:25.006Z,28.70
2023-05-11T11:20:53.028Z,28.20
2023-05-11T11:23:38.887Z,28.90
2023-05-11T11:26:06.505Z,29.30
2023-05-11T11:29:05.840Z,30.00
2023-05-11T11:31:34.344Z,29.70
2023-05-11T11:34:37.485Z,30.50
2023-05-11T11:37:04.656Z,31.00
2023-05-11T11:39:43.696Z,30.30
2023-05-11T11:42:11.552Z,30.30
2023-05-11T11:44:39.601Z,30.10
2023-05-11T11:47:15.614Z,29.40
2023-05-11T11:49:44.831Z,29.50
2023-05-11T11:52:32.458Z,29.60
2023-05-11T11:55:00.246Z,29.30
2023-05-11T11:57:30.258Z,29.50
2023-05-11T11:59:57.869Z,29.70
2023-05-11T12:02:26.538Z,29.90
2023-05-11T12:05:19.502Z,30.10
2023-05-11T12:07:50.768Z,30.10
2023-05-11T12:12:46.081Z,29.60
2023-05-11T12:15:26.078Z,28.80
2023-05-11T12:17:53.210Z,28.10
2023-05-11T12:20:20.872Z,26.90
2023-05-11T12:22:49.357Z,25.90
2023-05-11T12:25:18.069Z,25.60
2023-05-11T12:27:48.675Z,25.30
2023-05-11T12:30:19.850Z,25.10
2023-05-11T12:32:46.915Z,24.70
2023-05-11T12:35:14.308Z,24.40
2023-05-11T12:37:41.820Z,24.80
2023-05-11T12:40:12.283Z,25.10
2023-05-11T12:42:39.439Z,24.80
2023-05-11T12:45:07.290Z,24.90
2023-05-11T12:47:35.395Z,24.80
2023-05-11T12:50:03.553Z,24.40
2023-05-11T12:52:30.613Z,24.00
2023-05-11T12:55:01.209Z,23.80
2023-05-11T12:57:29.135Z,23.60
2023-05-11T13:00:06.953Z,23.40
2023-05-11T13:02:34.846Z,23.50
2023-05-11T13:05:14.077Z,23.50
2023-05-11T13:07:41.414Z,23.10
2023-05-11T13:10:08.746Z,22.90
2023-05-11T13:12:35.761Z,23.00
2023-05-11T13:15:14.748Z,23.00
2023-05-11T13:17:42.754Z,23.00
2023-05-11T13:20:29.579Z,23.20
2023-05-11T14:19:37.640Z,23.00
2023-05-11T14:22:04.747Z,23.00
2023-05-11T14:24:32.178Z,23.20
2023-05-11T14:26:59.569Z,23.30
2023-05-11T14:29:27.140Z,23.40
2023-05-11T14:31:54.037Z,23.30
2023-05-11T14:34:21.135Z,23.20
2023-05-11T14:36:48.698Z,23.20
2023-05-11T14:39:15.674Z,23.20
2023-05-11T14:41:43.124Z,23.10
2023-05-11T14:44:10.770Z,23.10
2023-05-11T14:46:38.104Z,23.10
2023-05-11T14:49:05.118Z,23.00
2023-05-11T14:51:32.200Z,22.90
2023-05-11T14:53:59.275Z,22.70
2023-05-11T14:58:53.926Z,22.70
2023-05-11T15:01:22.233Z,22.80
2023-05-11T15:03:49.516Z,22.80
2023-05-11T15:06:21.515Z,22.70
2023-05-11T15:08:49.456Z,22.60
2023-05-11T15:11:17.011Z,22.60
2023-05-11T15:13:44.135Z,22.60
2023-05-11T15:16:11.556Z,22.70
2023-05-11T15:18:41.520Z,22.60
2023-05-11T15:21:10.507Z,22.60
2023-05-11T15:23:37.584Z,22.50
2023-05-11T15:26:04.679Z,22.40
2023-05-11T15:28:31.724Z,22.40
2023-05-11T15:30:59.039Z,22.30
2023-05-11T15:33:26.577Z,22.20
2023-05-11T15:35:53.896Z,22.10
2023-05-11T15:38:20.917Z,22.10
2023-05-11T15:40:48.156Z,22.20
2023-05-11T15:43:15.184Z,22.20
2023-05-11T15:45:42.539Z,22.30
2023-05-11T15:48:10.359Z,22.30
2023-05-11T15:50:37.963Z,22.40
2023-05-11T15:53:05.040Z,22.30
2023-05-11T15:55:32.266Z,22.20
2023-05-11T15:57:59.190Z,22.10
2023-05-11T16:00:26.646Z,22.10
2023-05-11T16:02:53.802Z,22.10
2023-05-11T16:05:20.969Z,22.10
2023-05-11T16:07:47.945Z,21.90
2023-05-11T16:10:15.481Z,21.90
2023-05-11T16:12:42.531Z,21.90
2023-05-11T16:15:10.344Z,21.90
2023-05-11T16:17:37.652Z,21.90
2023-05-11T16:20:05.409Z,21.90
2023-05-11T16:22:32.431Z,21.80
2023-05-11T16:24:59.717Z,21.80
2023-05-11T16:27:26.708Z,21.80
2023-05-11T16:29:53.920Z,21.70
2023-05-11T16:32:20.850Z,21.70
2023-05-11T16:34:47.910Z,21.70
2023-05-11T16:37:15.216Z,21.60
2023-05-11T16:39:42.599Z,21.50
2023-05-11T16:42:09.704Z,21.50
2023-05-11T16:44:36.789Z,21.40
2023-05-11T16:47:04.218Z,21.40
2023-05-11T16:49:31.488Z,21.40
2023-05-11T16:51:58.389Z,21.40
2023-05-11T16:54:26.434Z,21.40
2023-05-11T16:56:53.855Z,21.30
2023-05-11T16:59:20.997Z,21.30
2023-05-11T17:01:48.271Z,21.20
2023-05-11T17:04:15.435Z,21.20
2023-05-11T17:06:42.887Z,21.10
2023-05-11T17:09:09.784Z,21.10
2023-05-11T17:11:37.201Z,21.10
2023-05-11T17:14:04.572Z,21.00
2023-05-11T17:16:32.000Z,21.00
2023-05-11T17:18:59.316Z,21.00
2023-05-11T17:21:26.688Z,20.90
2023-05-11T17:23:53.676Z,20.80
2023-05-11T17:26:25.104Z,20.70
2023-05-11T17:28:54.657Z,20.60
2023-05-11T17:31:22.137Z,20.50
2023-05-11T17:33:49.372Z,20.40
2023-05-11T17:36:16.558Z,20.40
2023-05-11T17:38:43.803Z,20.40
2023-05-11T17:41:14.681Z,20.40
2023-05-11T17:43:41.705Z,20.40
2023-05-11T17:46:08.965Z,20.40
2023-05-11T17:48:35.911Z,20.30
2023-05-11T17:51:02.949Z,20.30
2023-05-11T17:53:30.126Z,20.30
2023-05-11T17:56:00.676Z,20.30
2023-05-11T17:58:27.974Z,20.20
2023-05-11T18:00:55.640Z,20.20
2023-05-11T18:03:22.821Z,20.20
2023-05-11T18:05:50.140Z,20.10
2023-05-11T18:08:17.242Z,20.10
2023-05-11T18:10:44.880Z,20.10
2023-05-11T18:13:12.020Z,20.10
2023-05-11T18:15:39.554Z,20.00
2023-05-11T18:18:06.627Z,19.90
2023-05-11T18:20:34.688Z,19.80
2023-05-11T18:23:01.922Z,19.80
2023-05-11T18:25:31.991Z,19.80
2023-05-11T18:27:59.447Z,19.70
2023-05-11T18:30:30.356Z,19.80
2023-05-11T18:32:57.576Z,19.70
2023-05-11T18:35:24.831Z,19.70
2023-05-11T18:37:51.863Z,19.60
2023-05-11T18:40:19.636Z,19.60
2023-05-11T18:42:49.706Z,19.60
2023-05-11T18:45:17.465Z,19.60
2023-05-11T18:47:46.357Z,19.50
2023-05-11T18:50:13.757Z,19.50
2023-05-11T18:52:40.923Z,19.50
2023-05-11T18:55:08.250Z,19.50
2023-05-11T18:57:35.988Z,19.40
2023-05-11T19:00:04.172Z,19.40
2023-05-11T19:02:32.088Z,19.40
2023-05-11T19:04:59.086Z,19.40
2023-05-11T19:07:26.287Z,19.40
2023-05-11T19:09:53.298Z,19.30
2023-05-11T19:12:20.747Z,19.30
2023-05-11T19:14:47.748Z,19.30
2023-05-11T19:17:15.291Z,19.20
2023-05-11T19:19:42.637Z,19.20
2023-05-11T19:22:11.594Z,19.20
2023-05-11T19:24:38.641Z,19.20
2023-05-11T19:27:07.830Z,19.20
2023-05-11T19:29:35.572Z,19.10
2023-05-11T19:34:30.806Z,19.00
2023-05-11T19:36:58.092Z,18.90
2023-05-11T19:39:26.972Z,18.90
2023-05-11T19:41:54.568Z,18.80
2023-05-11T19:44:21.651Z,18.80
2023-05-11T19:46:49.107Z,18.70
2023-05-11T19:49:16.860Z,18.70
2023-05-11T19:51:44.006Z,18.60
2023-05-11T19:54:11.610Z,18.60
2023-05-11T19:56:39.438Z,18.60
2023-05-11T19:59:06.497Z,18.50
2023-05-11T20:01:34.035Z,18.50
2023-05-11T20:04:01.482Z,18.40
2023-05-11T20:06:29.071Z,18.40
2023-05-11T20:08:56.687Z,18.30
2023-05-11T20:11:25.462Z,18.30
2023-05-11T20:13:53.633Z,18.20
2023-05-11T20:16:24.085Z,18.20
2023-05-11T20:18:51.590Z,18.20
2023-05-11T20:21:19.096Z,18.10
2023-05-11T20:23:46.102Z,18.10
2023-05-11T20:26:13.519Z,18.10
2023-05-11T20:28:40.628Z,18.00
2023-05-11T20:31:09.690Z,18.00
2023-05-11T20:36:07.107Z,17.90
2023-05-11T20:38:34.088Z,18.00
2023-05-11T20:41:01.467Z,18.00
2023-05-11T20:43:28.587Z,18.00
2023-05-11T20:46:01.616Z,18.00
2023-05-11T20:48:38.935Z,18.00
2023-05-11T20:51:09.620Z,18.00
2023-05-11T20:53:36.734Z,18.00
2023-05-11T20:56:04.095Z,18.00
2023-05-11T20:58:31.767Z,18.00
2023-05-11T21:00:59.161Z,18.00
2023-05-11T21:03:26.832Z,17.90
2023-05-11T21:05:54.047Z,18.00
2023-05-11T21:08:21.302Z,17.90
2023-05-11T21:10:48.667Z,17.90
2023-05-11T21:13:15.917Z,17.90
2023-05-11T21:15:42.912Z,17.80
2023-05-11T21:18:10.063Z,17.80
2023-05-11T21:20:37.106Z,17.80
2023-05-11T21:23:04.277Z,17.80
2023-05-11T21:25:31.542Z,17.80
2023-05-11T21:28:00.831Z,17.80
2023-05-11T21:30:28.212Z,17.70
2023-05-11T21:32:55.564Z,17.60
2023-05-11T21:35:22.762Z,17.60
2023-05-11T21:37:50.092Z,17.60
2023-05-11T21:40:18.132Z,17.60
2023-05-11T21:42:45.696Z,17.60
2023-05-11T21:45:12.686Z,17.50
2023-05-11T21:47:39.866Z,17.50
2023-05-11T21:50:07.832Z,17.50
2023-05-11T21:52:35.409Z,17.50
2023-05-11T21:55:02.392Z,17.40
2023-05-11T21:57:29.625Z,17.40
2023-05-11T21:59:56.965Z,17.40
2023-05-11T22:02:24.274Z,17.40
2023-05-11T22:04:51.307Z,17.30
2023-05-11T22:07:20.078Z,17.20
2023-05-11T22:09:47.053Z,17.20
2023-05-11T22:12:14.309Z,17.20
2023-05-11T22:14:41.629Z,17.10
2023-05-11T22:17:08.967Z,17.10
2023-05-11T22:19:36.097Z,17.20
2023-05-11T22:22:03.238Z,17.00
2023-05-11T22:24:30.380Z,17.00
2023-05-11T22:26:57.407Z,16.90
2023-05-11T22:29:24.355Z,16.80
2023-05-11T22:31:51.817Z,16.80
2023-05-11T22:34:19.677Z,16.70
2023-05-11T22:36:47.042Z,16.70
2023-05-11T22:39:14.462Z,16.70
2023-05-11T22:41:42.008Z,16.60
2023-05-11T22:44:08.954Z,16.60
2023-05-11T22:49:03.779Z,16.50
2023-05-11T22:51:31.146Z,16.50
2023-05-11T22:53:58.053Z,16.40
2023-05-11T22:56:25.384Z,16.40
2023-05-11T22:58:52.851Z,16.40
2023-05-11T23:01:20.930Z,16.40
2023-05-11T23:03:47.883Z,16.30
2023-05-11T23:06:14.850Z,16.20
2023-05-11T23:08:42.018Z,16.10
2023-05-11T23:11:09.201Z,16.10
2023-05-11T23:13:36.305Z,16.00
2023-05-11T23:16:04.409Z,15.90
2023-05-11T23:18:32.188Z,15.80
2023-05-11T23:20:59.585Z,15.80
2023-05-11T23:23:27.069Z,15.80
2023-05-11T23:25:54.040Z,15.80
2023-05-11T23:28:21.011Z,15.80
2023-05-11T23:33:15.722Z,15.60
2023-05-11T23:35:42.900Z,15.40
2023-05-11T23:38:11.293Z,15.30
2023-05-11T23:40:38.783Z,15.40
2023-05-11T23:43:05.901Z,15.30
2023-05-11T23:45:33.013Z,15.30
2023-05-11T23:48:00.303Z,15.30
2023-05-11T23:50:27.564Z,15.20
2023-05-11T23:52:55.287Z,15.20
2023-05-11T23:55:24.375Z,15.20
2023-05-11T23:57:57.651Z,15.20
